createdAt,value
2023-05-17T00:01:07.000Z,2.70
2023-05-17T00:03:28.183Z,3.60
2023-05-17T00:05:49.354Z,4.30
2023-05-17T00:08:12.271Z,3.67
2023-05-17T00:10:33.578Z,2.90
2023-05-17T00:12:54.852Z,4.07
2023-05-17T00:15:16.229Z,3.20
2023-05-17T00:20:46.886Z,2.10
2023-05-17T00:23:08.608Z,3.20
2023-05-17T00:25:31.403Z,2.40
2023-05-17T00:27:53.093Z,4.30
2023-05-17T00:30:14.594Z,3.23
2023-05-17T00:32:35.901Z,4.87
2023-05-17T00:34:57.347Z,2.93
2023-05-17T00:37:18.757Z,2.40
2023-05-17T00:39:40.121Z,2.90
2023-05-17T00:42:03.129Z,2.77
2023-05-17T00:44:24.388Z,2.50
2023-05-17T00:46:46.759Z,4.23
2023-05-17T00:49:08.228Z,5.37
2023-05-17T00:51:29.398Z,3.77
2023-05-17T00:53:51.347Z,2.03
2023-05-17T00:56:12.687Z,6.33
2023-05-17T00:58:35.269Z,2.80
2023-05-17T01:00:56.801Z,2.73
2023-05-17T01:03:18.366Z,4.33
2023-05-17T01:05:39.718Z,2.97
2023-05-17T01:08:01.046Z,3.40
2023-05-17T01:10:22.437Z,2.37
2023-05-17T01:12:47.955Z,2.50
2023-05-17T01:15:16.003Z,2.40
2023-05-17T01:17:40.914Z,2.93
2023-05-17T01:20:06.479Z,2.27
2023-05-17T01:22:35.113Z,2.57
2023-05-17T01:25:02.305Z,2.90
2023-05-17T01:27:26.814Z,2.90
2023-05-17T01:29:49.136Z,4.30
2023-05-17T01:32:11.414Z,2.73
2023-05-17T01:34:32.785Z,4.27
2023-05-17T01:36:54.318Z,3.23
2023-05-17T01:39:15.218Z,2.67
2023-05-17T01:41:38.057Z,4.03
2023-05-17T01:44:03.727Z,2.90
2023-05-17T01:46:27.447Z,3.07
2023-05-17T01:48:52.889Z,6.70
2023-05-17T01:51:17.740Z,3.07
2023-05-17T01:53:39.749Z,3.00
2023-05-17T01:56:04.609Z,4.77
2023-05-17T01:58:26.613Z,4.33
2023-05-17T02:00:50.324Z,5.00
2023-05-17T02:03:13.727Z,2.47
2023-05-17T02:05:35.166Z,2.80
2023-05-17T02:07:56.565Z,4.70
2023-05-17T02:10:17.873Z,2.70
2023-05-17T02:12:39.252Z,3.10
2023-05-17T02:15:00.484Z,3.73
2023-05-17T02:17:23.151Z,2.93
2023-05-17T02:19:44.585Z,3.97
2023-05-17T02:22:05.999Z,2.90
2023-05-17T02:24:27.490Z,4.10
2023-05-17T02:26:48.767Z,3.10
2023-05-17T02:29:11.034Z,2.63
2023-05-17T02:31:32.407Z,3.30
2023-05-17T02:33:55.861Z,5.10
2023-05-17T02:36:17.103Z,4.87
2023-05-17T02:38:38.814Z,5.10
2023-05-17T02:41:00.116Z,3.37
2023-05-17T02:43:21.320Z,2.93
2023-05-17T02:45:44.368Z,2.87
2023-05-17T02:48:05.858Z,4.50
2023-05-17T02:50:28.369Z,7.20
2023-05-17T02:52:49.668Z,2.90
2023-05-17T02:55:11.151Z,4.70
2023-05-17T02:57:32.279Z,3.00
2023-05-17T02:59:53.752Z,2.77
2023-05-17T03:02:15.177Z,3.53
2023-05-17T03:04:36.968Z,2.87
2023-05-17T03:06:59.603Z,3.07
2023-05-17T03:09:20.807Z,3.10
2023-05-17T03:11:42.129Z,3.20
2023-05-17T03:14:03.513Z,3.43
2023-05-17T03:16:24.736Z,2.77
2023-05-17T03:18:46.053Z,2.70
2023-05-17T03:21:07.156Z,3.80
2023-05-17T03:23:29.838Z,2.70
2023-05-17T03:25:51.080Z,4.07
2023-05-17T03:28:12.260Z,3.77
2023-05-17T03:30:33.535Z,4.17
2023-05-17T03:32:54.773Z,3.60
2023-05-17T03:35:15.989Z,4.87
2023-05-17T03:37:37.093Z,3.13
2023-05-17T03:39:59.893Z,5.97
2023-05-17T03:42:21.519Z,5.17
2023-05-17T03:44:42.623Z,3.33
2023-05-17T03:47:04.132Z,4.10
2023-05-17T03:49:25.478Z,3.33
2023-05-17T03:51:46.733Z,4.13
2023-05-17T03:54:08.067Z,3.37
2023-05-17T03:56:31.276Z,3.80
2023-05-17T03:58:52.504Z,6.07
2023-05-17T04:01:14.276Z,5.60
2023-05-17T04:03:37.464Z,3.80
2023-05-17T04:06:02.456Z,3.87
2023-05-17T04:08:24.130Z,3.63
2023-05-17T04:10:45.205Z,5.00
2023-05-17T04:13:08.016Z,4.70
2023-05-17T04:15:29.730Z,5.20
2023-05-17T04:17:50.988Z,4.27
2023-05-17T04:20:13.732Z,6.40
2023-05-17T04:22:34.811Z,6.27
2023-05-17T04:24:55.974Z,5.47
2023-05-17T04:27:17.466Z,3.77
2023-05-17T04:29:41.368Z,4.00
2023-05-17T04:32:02.701Z,4.53
2023-05-17T04:34:24.991Z,4.73
2023-05-17T04:36:46.531Z,8.47
2023-05-17T04:39:07.982Z,7.80
2023-05-17T04:41:29.401Z,7.80
2023-05-17T04:43:50.909Z,7.47
2023-05-17T04:46:13.713Z,7.60
2023-05-17T04:48:35.217Z,5.90
2023-05-17T04:50:56.299Z,5.27
2023-05-17T04:53:17.573Z,5.70
2023-05-17T04:55:38.949Z,5.67
2023-05-17T04:58:00.204Z,4.87
2023-05-17T05:00:23.734Z,5.27
2023-05-17T05:02:46.664Z,5.60
2023-05-17T05:05:09.461Z,4.27
2023-05-17T05:07:30.995Z,4.50
2023-05-17T05:09:52.115Z,4.90
2023-05-17T05:12:13.424Z,5.37
2023-05-17T05:14:34.724Z,5.10
2023-05-17T05:16:56.978Z,4.23
2023-05-17T05:19:19.871Z,5.73
2023-05-17T05:21:40.776Z,5.70
2023-05-17T05:24:02.021Z,8.80
2023-05-17T05:26:23.189Z,7.13
2023-05-17T05:28:45.133Z,8.63
2023-05-17T05:31:05.966Z,6.60
2023-05-17T05:33:27.319Z,5.57
2023-05-17T05:35:49.753Z,7.10
2023-05-17T05:38:11.125Z,4.63
2023-05-17T05:40:32.544Z,5.23
2023-05-17T05:42:54.403Z,5.80
2023-05-17T05:45:15.614Z,5.33
2023-05-17T05:47:37.015Z,5.20
2023-05-17T05:49:58.514Z,5.03
2023-05-17T05:52:21.135Z,5.07
2023-05-17T05:54:42.333Z,5.03
2023-05-17T05:57:03.767Z,4.10
2023-05-17T05:59:24.976Z,4.13
2023-05-17T06:01:46.585Z,4.03
2023-05-17T06:04:07.572Z,4.03
2023-05-17T06:06:29.019Z,4.23
2023-05-17T06:08:51.864Z,6.77
2023-05-17T06:11:13.108Z,6.53
2023-05-17T06:13:34.402Z,4.90
2023-05-17T06:15:55.715Z,6.37
2023-05-17T06:18:17.039Z,6.33
2023-05-17T06:20:38.206Z,3.87
2023-05-17T06:22:59.534Z,10.07
2023-05-17T06:25:22.329Z,3.53
2023-05-17T06:27:43.783Z,4.97
2023-05-17T06:30:07.315Z,5.83
2023-05-17T06:32:28.875Z,5.17
2023-05-17T06:34:50.189Z,3.97
2023-05-17T06:37:11.685Z,4.63
2023-05-17T06:39:32.845Z,3.90
2023-05-17T06:41:55.444Z,5.33
2023-05-17T06:44:16.540Z,4.10
2023-05-17T06:46:37.737Z,4.67
2023-05-17T06:48:59.149Z,3.17
2023-05-17T06:51:20.185Z,3.83
2023-05-17T06:53:41.461Z,5.23
2023-05-17T06:56:03.154Z,3.70
2023-05-17T06:58:25.941Z,6.27
2023-05-17T07:00:47.448Z,5.87
2023-05-17T07:03:08.935Z,3.93
2023-05-17T07:05:30.955Z,4.67
2023-05-17T07:07:52.663Z,4.10
2023-05-17T07:10:13.952Z,4.80
2023-05-17T07:12:35.298Z,4.60
2023-05-17T07:14:58.029Z,4.83
2023-05-17T07:17:19.376Z,4.43
2023-05-17T07:19:40.428Z,6.03
2023-05-17T07:22:01.495Z,3.93
2023-05-17T07:24:22.879Z,5.73
2023-05-17T07:26:44.316Z,5.27
2023-05-17T07:29:05.591Z,4.93
2023-05-17T07:31:28.307Z,3.87
2023-05-17T07:33:49.709Z,5.93
2023-05-17T07:36:11.249Z,4.53
2023-05-17T07:38:35.436Z,2.97
2023-05-17T07:40:57.093Z,4.80
2023-05-17T07:43:18.126Z,4.63
2023-05-17T07:45:39.389Z,6.83
2023-05-17T07:48:02.172Z,4.07
2023-05-17T07:50:24.023Z,5.10
2023-05-17T07:52:45.252Z,3.60
2023-05-17T07:55:06.998Z,7.67
2023-05-17T07:57:28.529Z,5.43
2023-05-17T07:59:49.492Z,6.97
2023-05-17T08:02:10.921Z,6.67
2023-05-17T08:04:33.390Z,6.87
2023-05-17T08:06:55.702Z,5.40
2023-05-17T08:09:16.832Z,4.10
2023-05-17T08:11:41.626Z,6.10
2023-05-17T08:14:02.982Z,5.90
2023-05-17T08:16:24.296Z,5.37
2023-05-17T08:18:45.754Z,6.33
2023-05-17T08:21:08.384Z,6.13
2023-05-17T08:23:29.422Z,7.83
2023-05-17T08:25:50.848Z,6.17
2023-05-17T08:28:12.920Z,4.63
2023-05-17T08:30:34.028Z,3.80
2023-05-17T08:32:56.630Z,4.63
2023-05-17T08:35:18.418Z,6.10
2023-05-17T08:37:41.037Z,3.53
2023-05-17T08:40:02.377Z,8.47
2023-05-17T08:42:25.287Z,5.70
2023-05-17T08:44:47.307Z,4.67
2023-05-17T08:47:11.308Z,6.63
2023-05-17T08:49:33.258Z,4.60
2023-05-17T08:51:55.643Z,4.83
2023-05-17T08:54:18.289Z,4.97
2023-05-17T08:56:40.172Z,4.20
2023-05-17T08:59:02.273Z,5.47
2023-05-17T09:01:25.915Z,5.33
2023-05-17T09:03:49.591Z,4.73
2023-05-17T09:06:11.785Z,5.50
2023-05-17T09:08:33.062Z,3.60
2023-05-17T09:10:56.904Z,4.37
2023-05-17T09:13:18.070Z,3.70
2023-05-17T09:15:39.515Z,3.67
2023-05-17T09:18:01.136Z,3.67
2023-05-17T09:20:26.044Z,3.80
2023-05-17T09:22:49.844Z,3.77
2023-05-17T09:25:10.808Z,3.37
2023-05-17T09:27:33.966Z,4.40
2023-05-17T09:29:55.874Z,3.43
2023-05-17T09:32:18.157Z,5.13
2023-05-17T09:34:41.030Z,6.73
2023-05-17T09:37:02.288Z,3.97
2023-05-17T09:39:23.493Z,3.77
2023-05-17T09:41:46.545Z,4.90
2023-05-17T09:44:12.147Z,4.43
2023-05-17T09:46:34.544Z,3.50
2023-05-17T09:48:56.726Z,3.93
2023-05-17T09:51:18.362Z,2.97
2023-05-17T09:53:40.825Z,3.80
2023-05-17T09:56:03.100Z,3.90
2023-05-17T09:58:24.477Z,3.73
2023-05-17T10:00:48.958Z,4.57
2023-05-17T10:03:13.219Z,5.20
2023-05-17T10:05:35.583Z,3.20
2023-05-17T10:07:57.581Z,3.00
2023-05-17T10:10:19.987Z,3.17
2023-05-17T10:12:41.807Z,2.90
2023-05-17T10:15:03.200Z,3.67
2023-05-17T10:17:27.517Z,2.83
2023-05-17T10:19:49.549Z,3.10
2023-05-17T10:22:21.522Z,2.87
2023-05-17T10:24:44.999Z,3.37
2023-05-17T10:27:07.591Z,3.10
2023-05-17T10:29:31.432Z,3.10
2023-05-17T10:31:52.743Z,3.03
2023-05-17T10:34:16.863Z,2.97
2023-05-17T10:36:38.432Z,3.53
2023-05-17T10:39:00.286Z,3.50
2023-05-17T10:41:24.050Z,4.03
2023-05-17T10:43:45.961Z,4.40
2023-05-17T10:46:14.946Z,5.33
2023-05-17T10:48:39.315Z,3.70
2023-05-17T10:51:07.916Z,4.13
2023-05-17T10:53:29.319Z,5.37
2023-05-17T10:55:52.697Z,4.40
2023-05-17T10:58:16.568Z,3.40
2023-05-17T11:00:40.368Z,4.90
2023-05-17T11:03:12.650Z,4.53
2023-05-17T11:05:34.041Z,4.17
2023-05-17T11:08:12.915Z,4.17
2023-05-17T11:10:36.648Z,3.73
2023-05-17T11:12:58.069Z,4.03
2023-05-17T11:15:19.329Z,4.23
2023-05-17T11:17:51.500Z,5.10
2023-05-17T11:20:31.845Z,3.93
2023-05-17T11:22:57.076Z,4.80
2023-05-17T11:25:20.052Z,4.67
2023-05-17T11:27:45.418Z,3.93
2023-05-17T11:30:10.986Z,4.30
2023-05-17T11:32:32.990Z,4.70
2023-05-17T11:34:54.632Z,4.27
2023-05-17T11:37:26.298Z,3.93
2023-05-17T11:40:02.566Z,4.70
2023-05-17T11:42:26.971Z,5.60
2023-05-17T11:44:48.600Z,6.20
2023-05-17T11:47:10.111Z,5.40
2023-05-17T11:49:35.768Z,4.53
2023-05-17T11:51:57.873Z,5.90
2023-05-17T11:54:19.410Z,4.37
2023-05-17T11:56:43.421Z,5.30
2023-05-17T11:59:06.822Z,4.97
2023-05-17T12:01:27.911Z,5.20
2023-05-17T12:03:56.396Z,5.20
2023-05-17T12:06:18.529Z,8.33
2023-05-17T12:08:40.617Z,4.00
2023-05-17T12:11:02.121Z,5.80
2023-05-17T12:13:24.115Z,5.60
2023-05-17T12:15:49.496Z,4.40
2023-05-17T12:18:10.830Z,3.90
2023-05-17T12:20:33.401Z,5.43
2023-05-17T12:22:56.220Z,3.73
2023-05-17T12:25:20.834Z,4.87
2023-05-17T12:27:42.192Z,4.77
2023-05-17T12:30:14.809Z,4.80
2023-05-17T12:32:37.494Z,4.53
2023-05-17T12:34:58.642Z,4.03
2023-05-17T12:37:19.959Z,3.90
2023-05-17T12:39:41.402Z,4.83
2023-05-17T12:42:02.397Z,6.87
2023-05-17T12:44:23.689Z,4.27
2023-05-17T12:46:45.028Z,3.83
2023-05-17T12:49:08.374Z,5.90
2023-05-17T12:51:29.510Z,4.23
2023-05-17T12:53:51.554Z,3.83
2023-05-17T12:56:16.078Z,3.77
2023-05-17T12:58:37.254Z,4.23
2023-05-17T13:00:59.442Z,5.13
2023-05-17T13:03:20.515Z,4.63
2023-05-17T13:05:44.172Z,3.97
2023-05-17T13:08:19.902Z,5.37
2023-05-17T13:10:41.182Z,4.83
2023-05-17T13:13:03.116Z,6.10
2023-05-17T13:15:32.183Z,6.77
2023-05-17T13:17:53.843Z,4.17
2023-05-17T13:20:15.173Z,5.20
2023-05-17T13:22:41.418Z,5.80
2023-05-17T13:25:03.967Z,6.23
2023-05-17T13:27:25.253Z,5.90
2023-05-17T13:29:46.513Z,4.70
2023-05-17T13:32:08.464Z,7.30
2023-05-17T13:34:29.703Z,4.60
2023-05-17T13:36:51.024Z,4.43
2023-05-17T13:39:14.059Z,5.10
2023-05-17T13:41:35.072Z,3.90
2023-05-17T13:43:57.268Z,5.07
2023-05-17T13:46:18.766Z,5.30
2023-05-17T13:48:42.613Z,4.67
2023-05-17T13:51:04.250Z,4.90
2023-05-17T13:53:25.057Z,7.80
2023-05-17T13:55:47.549Z,5.97
2023-05-17T13:58:08.830Z,4.37
2023-05-17T14:00:30.371Z,4.13
2023-05-17T14:02:51.975Z,4.77
2023-05-17T14:05:14.919Z,4.93
2023-05-17T14:07:36.612Z,4.23
2023-05-17T14:09:58.342Z,4.33
2023-05-17T14:12:20.952Z,4.67
2023-05-17T14:14:42.387Z,4.33
2023-05-17T14:17:03.706Z,3.93
2023-05-17T14:19:24.948Z,5.80
2023-05-17T14:21:46.160Z,5.27
2023-05-17T14:24:07.519Z,5.63
2023-05-17T14:26:28.487Z,7.07
2023-05-17T14:28:51.134Z,5.90
2023-05-17T14:31:12.381Z,5.87
2023-05-17T14:33:33.950Z,6.33
2023-05-17T14:35:55.239Z,5.57
2023-05-17T14:38:16.570Z,5.60
2023-05-17T14:40:38.036Z,4.47
2023-05-17T14:42:59.389Z,5.93
2023-05-17T14:45:22.009Z,6.70
2023-05-17T14:47:43.429Z,8.90
2023-05-17T14:50:04.894Z,4.30
2023-05-17T14:52:25.876Z,4.30
2023-05-17T14:54:47.264Z,4.23
2023-05-17T14:57:09.415Z,5.37
2023-05-17T14:59:30.690Z,5.50
2023-05-17T15:01:53.510Z,4.67
2023-05-17T15:04:14.724Z,8.23
2023-05-17T15:06:36.183Z,5.13
2023-05-17T15:08:57.806Z,4.13
2023-05-17T15:11:18.805Z,5.10
2023-05-17T15:13:40.036Z,6.00
2023-05-17T15:16:02.810Z,4.87
2023-05-17T15:18:26.192Z,3.87
2023-05-17T15:20:47.547Z,4.03
2023-05-17T15:23:09.059Z,6.53
2023-05-17T15:25:30.556Z,6.10
2023-05-17T15:27:52.455Z,4.73
2023-05-17T15:30:14.303Z,4.00
2023-05-17T15:32:35.681Z,4.17
2023-05-17T15:34:59.149Z,5.73
2023-05-17T15:37:20.416Z,4.13
2023-05-17T15:39:41.637Z,5.47
2023-05-17T15:42:03.382Z,4.03
2023-05-17T15:44:24.866Z,5.73
2023-05-17T15:46:46.228Z,4.00
2023-05-17T15:49:07.694Z,7.90
2023-05-17T15:51:30.386Z,4.10
2023-05-17T15:53:51.482Z,3.70
2023-05-17T15:56:12.775Z,4.47
2023-05-17T15:58:34.999Z,4.30
2023-05-17T16:00:56.008Z,3.93
2023-05-17T16:03:17.424Z,4.20
2023-05-17T16:05:38.794Z,4.60
2023-05-17T16:08:01.370Z,4.00
2023-05-17T16:10:22.531Z,4.30
2023-05-17T16:12:43.692Z,4.50
2023-05-17T16:15:05.074Z,4.83
2023-05-17T16:17:26.171Z,5.87
2023-05-17T16:19:47.359Z,5.27
2023-05-17T16:22:09.582Z,5.33
2023-05-17T16:24:32.487Z,4.70
2023-05-17T16:26:53.911Z,5.30
2023-05-17T16:29:16.895Z,7.37
2023-05-17T16:31:38.201Z,7.63
2023-05-17T16:33:59.503Z,4.40
2023-05-17T16:36:23.146Z,4.33
2023-05-17T16:38:44.194Z,6.97
2023-05-17T16:41:06.653Z,4.20
2023-05-17T16:43:28.037Z,3.63
2023-05-17T16:45:52.157Z,4.33
2023-05-17T16:48:15.150Z,7.97
2023-05-17T16:50:36.520Z,4.33
2023-05-17T16:52:57.871Z,4.47
2023-05-17T16:55:19.185Z,4.37
2023-05-17T16:57:42.092Z,5.10
2023-05-17T17:00:03.934Z,5.00
2023-05-17T17:02:25.948Z,4.87
2023-05-17T17:04:47.097Z,4.40
2023-05-17T17:07:08.310Z,4.17
2023-05-17T17:09:29.641Z,4.33
2023-05-17T17:11:51.076Z,3.87
2023-05-17T17:14:13.723Z,4.10
2023-05-17T17:16:35.110Z,3.97
2023-05-17T17:18:56.380Z,3.83
2023-05-17T17:21:18.059Z,4.20
2023-05-17T17:23:39.829Z,3.87
2023-05-17T17:26:01.162Z,4.37
2023-05-17T17:28:22.561Z,4.53
2023-05-17T17:30:47.354Z,4.20
2023-05-17T17:33:08.574Z,4.13
2023-05-17T17:35:29.844Z,5.73
2023-05-17T17:37:51.005Z,5.07
2023-05-17T17:40:12.654Z,4.00
2023-05-17T17:42:33.702Z,4.23
2023-05-17T17:44:55.119Z,5.90
2023-05-17T17:47:17.475Z,4.47
2023-05-17T17:49:38.677Z,4.00
2023-05-17T17:51:59.994Z,5.73
2023-05-17T17:54:21.425Z,3.87
2023-05-17T17:56:42.739Z,4.13
2023-05-17T17:59:04.177Z,3.80
2023-05-17T18:01:26.208Z,4.13
2023-05-17T18:03:48.925Z,5.80
2023-05-17T18:06:10.246Z,4.23
2023-05-17T18:08:31.656Z,4.10
2023-05-17T18:10:52.930Z,4.33
2023-05-17T18:13:14.357Z,3.93
2023-05-17T18:15:35.633Z,5.37
2023-05-17T18:17:57.019Z,5.07
2023-05-17T18:20:22.101Z,4.93
2023-05-17T18:22:43.394Z,4.90
2023-05-17T18:25:04.788Z,6.73
2023-05-17T18:27:26.435Z,5.43
2023-05-17T18:29:47.493Z,4.33
2023-05-17T18:32:09.742Z,4.93
2023-05-17T18:34:30.913Z,5.73
2023-05-17T18:36:53.625Z,5.93
2023-05-17T18:39:14.766Z,5.33
2023-05-17T18:41:36.084Z,4.37
2023-05-17T18:44:01.566Z,4.27
2023-05-17T18:46:22.767Z,7.03
2023-05-17T18:48:43.860Z,4.53
2023-05-17T18:51:05.174Z,4.73
2023-05-17T18:53:29.230Z,6.00
2023-05-17T18:55:50.320Z,5.00
2023-05-17T18:58:11.776Z,6.30
2023-05-17T19:00:33.221Z,4.33
2023-05-17T19:02:54.571Z,4.50
2023-05-17T19:05:16.665Z,4.73
2023-05-17T19:07:37.969Z,5.00
2023-05-17T19:10:00.564Z,5.73
2023-05-17T19:12:21.532Z,5.37
2023-05-17T19:14:42.879Z,4.23
2023-05-17T19:17:04.167Z,5.10
2023-05-17T19:19:26.027Z,6.43
2023-05-17T19:21:47.316Z,6.50
2023-05-17T19:24:08.714Z,5.57
2023-05-17T19:26:31.050Z,7.20
2023-05-17T19:28:52.290Z,5.60
2023-05-17T19:31:13.812Z,6.63
2023-05-17T19:33:37.578Z,4.93
2023-05-17T19:35:59.119Z,5.63
2023-05-17T19:38:20.242Z,6.93
2023-05-17T19:40:41.704Z,6.37
2023-05-17T19:43:04.241Z,4.90
2023-05-17T19:45:25.882Z,6.77
2023-05-17T19:47:47.509Z,6.43
2023-05-17T19:50:09.228Z,6.17
2023-05-17T19:52:30.479Z,7.60
2023-05-17T19:54:51.613Z,6.03
2023-05-17T19:57:12.412Z,7.03
2023-05-17T19:59:35.277Z,7.10
2023-05-17T20:01:56.672Z,5.73
2023-05-17T20:04:18.215Z,7.03
2023-05-17T20:06:39.604Z,6.33
2023-05-17T20:09:01.055Z,7.40
2023-05-17T20:11:22.510Z,6.47
2023-05-17T20:13:43.857Z,7.37
2023-05-17T20:16:12.183Z,8.90
2023-05-17T20:18:33.529Z,6.50
2023-05-17T20:20:55.801Z,10.87
2023-05-17T20:23:17.061Z,7.50
2023-05-17T20:25:40.970Z,7.93
2023-05-17T20:28:02.336Z,7.73
2023-05-17T20:30:23.574Z,7.00
2023-05-17T20:32:46.308Z,7.60
2023-05-17T20:35:08.170Z,6.03
2023-05-17T20:37:29.459Z,7.83
2023-05-17T20:39:51.370Z,7.47
2023-05-17T20:42:18.286Z,9.00
2023-05-17T20:44:40.243Z,9.03
2023-05-17T20:47:01.839Z,8.53
2023-05-17T20:49:24.686Z,9.43
2023-05-17T20:51:45.806Z,9.83
2023-05-17T20:54:08.748Z,8.00
2023-05-17T20:56:31.718Z,9.37
2023-05-17T20:58:52.989Z,8.03
2023-05-17T21:01:14.814Z,6.87
2023-05-17T21:03:36.165Z,7.07
2023-05-17T21:06:00.921Z,7.20
2023-05-17T21:08:22.548Z,7.03
2023-05-17T21:10:46.443Z,9.77
2023-05-17T21:13:09.304Z,10.03
2023-05-17T21:15:30.910Z,7.30
2023-05-17T21:17:52.262Z,8.13
2023-05-17T21:20:13.756Z,9.43
2023-05-17T21:22:35.926Z,11.43
2023-05-17T21:24:57.232Z,8.67
2023-05-17T21:27:18.451Z,9.37
2023-05-17T21:29:39.691Z,8.30
2023-05-17T21:32:00.989Z,8.60
2023-05-17T21:34:22.136Z,8.87
2023-05-17T21:36:43.443Z,8.67
2023-05-17T21:39:06.349Z,9.50
2023-05-17T21:41:27.392Z,9.20
2023-05-17T21:43:49.332Z,8.67
2023-05-17T21:46:10.828Z,8.70
2023-05-17T21:48:32.007Z,9.30
2023-05-17T21:50:53.363Z,10.13
2023-05-17T21:53:14.597Z,8.03
2023-05-17T21:55:56.198Z,10.03
2023-05-17T21:58:20.488Z,9.43
2023-05-17T22:00:41.673Z,9.47
2023-05-17T22:03:03.168Z,10.37
2023-05-17T22:05:24.589Z,9.17
2023-05-17T22:07:45.691Z,12.10
2023-05-17T22:10:09.542Z,13.43
2023-05-17T22:12:35.010Z,11.07
2023-05-17T22:14:56.830Z,13.07
2023-05-17T22:17:18.097Z,10.80
2023-05-17T22:19:41.652Z,9.37
2023-05-17T22:22:03.774Z,8.13
2023-05-17T22:24:25.255Z,8.43
2023-05-17T22:26:46.760Z,8.63
2023-05-17T22:29:09.539Z,8.63
2023-05-17T22:31:30.774Z,8.10
2023-05-17T22:33:53.895Z,10.80
2023-05-17T22:36:17.211Z,8.57
2023-05-17T22:38:38.308Z,10.50
2023-05-17T22:40:59.611Z,10.57
2023-05-17T22:43:22.306Z,8.70
2023-05-17T22:45:45.028Z,9.73
2023-05-17T22:48:06.950Z,9.50
2023-05-17T22:50:30.542Z,10.37
2023-05-17T22:52:53.248Z,10.60
2023-05-17T22:55:14.266Z,10.50
2023-05-17T22:57:35.697Z,9.50
2023-05-17T22:59:56.909Z,9.33
2023-05-17T23:02:19.521Z,9.43
2023-05-17T23:04:40.648Z,9.17
2023-05-17T23:07:02.548Z,12.97
2023-05-17T23:09:23.992Z,9.27
2023-05-17T23:11:44.864Z,9.87
2023-05-17T23:14:06.021Z,10.73
2023-05-17T23:16:28.472Z,12.63
2023-05-17T23:18:51.231Z,12.83
2023-05-17T23:21:12.943Z,13.00
2023-05-17T23:23:34.203Z,9.43
2023-05-17T23:25:56.567Z,12.93
2023-05-17T23:28:18.608Z,9.37
2023-05-17T23:30:40.169Z,11.10
2023-05-17T23:33:02.966Z,9.60
2023-05-17T23:35:25.802Z,11.57
2023-05-17T23:37:46.793Z,9.87
2023-05-17T23:40:09.410Z,10.93
2023-05-17T23:42:31.812Z,12.03
2023-05-17T23:44:53.488Z,11.13
2023-05-17T23:47:14.859Z,9.77
2023-05-17T23:49:36.103Z,8.47
2023-05-17T23:51:58.890Z,12.70
2023-05-17T23:54:20.108Z,10.63
2023-05-17T23:56:41.181Z,11.20
2023-05-17T23:59:02.514Z,9.17
